< Cyclone 199605 1996 Season Cyclone 199607 >
Cyclone 199606 (HUBERT)
General InformationTrack Information on Google MapsDetailed Wind InformationList of All Images || ResourceGoogle EarthGE AnimationAtom FeedGeoJSON
Detalied Best Track (Time Zone = UTC)
Year Month Day Hour Lat. Long. Pressure (hPa) Wind (kt) Class Image Chart
1996 1 6 22 -10.1 99.6 1006 0 0 Image --
1996 1 7 01 -10.2 99.1 1004 21 2 Image --
1996 1 7 04 -10.4 98.8 1002 23 2 Image --
1996 1 7 07 -10.6 98.5 1000 27 2 Image --
1996 1 7 10 -10.8 98.2 998 29 2 Image --
1996 1 7 13 -10.9 97.8 995 35 3 Image --
1996 1 7 16 -11.0 97.5 990 41 3 Image --
1996 1 7 19 -11.1 97.1 985 47 3 Image --
1996 1 7 22 -11.2 96.7 980 54 4 Image --
1996 1 8 01 -11.3 96.4 975 60 4 Image --
1996 1 8 04 -11.4 96.0 970 66 5 Image --
1996 1 8 07 -11.7 95.6 970 66 5 Image --
1996 1 8 10 -11.9 95.2 965 70 5 Image --
1996 1 8 13 -12.1 94.5 965 70 5 Image --
1996 1 8 16 -12.4 94.0 965 70 5 Image --
1996 1 8 19 -12.8 93.5 965 70 5 Image --
1996 1 8 22 -13.1 92.9 960 76 5 Image --
1996 1 9 01 -13.5 92.4 960 76 5 Image --
1996 1 9 04 -13.6 91.8 960 76 5 Image --
1996 1 9 07 -13.7 91.3 955 80 5 Image --
1996 1 9 10 -13.7 90.8 960 76 5 Image --
1996 1 9 13 -13.7 90.3 965 70 5 Image --
1996 1 9 16 -13.8 89.8 970 66 5 Image --
1996 1 9 19 -13.9 89.3 975 60 4 Image --
1996 1 9 22 -14.1 88.8 975 60 4 Image --
1996 1 10 01 -14.3 88.3 980 54 4 Image --
1996 1 10 04 -14.5 87.7 980 54 4 Image --
1996 1 10 07 -14.7 87.1 985 47 3 Image --
1996 1 10 10 -14.7 86.3 985 47 3 Image --
1996 1 10 13 -14.7 85.9 990 41 3 Image --
1996 1 10 16 -14.6 85.3 990 41 3 Image --
1996 1 10 19 -14.5 84.8 990 41 3 Image --
1996 1 10 22 -14.4 84.3 990 41 3 Image --
1996 1 11 01 -14.3 83.8 990 41 3 Image --
1996 1 11 04 -14.3 83.2 995 35 3 Image --
1996 1 11 07 -14.5 82.5 995 35 3 Image --
1996 1 11 10 -14.6 81.8 995 35 3 Image --
1996 1 11 13 -14.7 81.1 998 29 2 Image --
1996 1 11 16 -14.7 80.4 998 29 2 Image --
1996 1 11 19 -14.8 79.7 998 29 2 Image --
1996 1 11 22 -14.8 79.0 998 29 2 Image --
1996 1 12 01 -14.9 78.3 1000 27 2 Image --
1996 1 12 04 -14.9 77.6 1000 27 2 Image --
1996 1 12 07 -14.9 76.9 1000 27 2 Image --
1996 1 12 10 -14.9 76.2 1000 27 2 Image --
1996 1 12 13 -14.9 75.5 1004 21 2 Image --
< Cyclone 199605 1996 Season Cyclone 199607 >

Help